Aviation Digital Data Service (ADDS)

Output produced by METARs form (0248 UTC 25 January 2020)
found at http://www.aviationweather.gov/metar/data/
 
Forecast for: RJFO (OITA AIRPORT , JP)
Text: TAF RJFO 242312Z 2500/2606 02015KT 9999 FEW010 BKN030
Forecast period: 0000 UTC 25 January 2020 to 0600 UTC 26 January 2020
Forecast type: FROM: standard forecast or significant change
Winds: from the NNE (20 degrees) at 17 MPH (15 knots; 7.7 m/s)
Visibility: 6 or more miles 10+ km)
Ceiling: 3000 feet AGL
Clouds: few clouds at 1000 feet AGL
broken clouds at 3000 feet AGL
Weather: no significant weather forecast for this period
Text: TEMPO 2515/2600 4000 SHRA BR FEW005 BKN008 BKN010
Forecast period: 1500 UTC 25 January 2020 to 0000 UTC 26 January 2020
Forecast type: TEMPORARY: The following changes expected for less than half the time period
Visibility: 2.49 miles (4.01 km)
Ceiling: 800 feet AGL
Clouds: few clouds at 500 feet AGL
broken clouds at 800 feet AGL
broken clouds at 1000 feet AGL
Weather: SHRA BR  (rain showers, mist)
Text: TEMPO 2600/2603 4000 -SHRA BR FEW005 BKN008 BKN010
Forecast period: 0000 to 0300 UTC 26 January 2020
Forecast type: TEMPORARY: The following changes expected for less than half the time period
Visibility: 2.49 miles (4.01 km)
Ceiling: 800 feet AGL
Clouds: few clouds at 500 feet AGL
broken clouds at 800 feet AGL
broken clouds at 1000 feet AGL
Weather: -SHRA BR  (light rain showers, mist)